Time,TemperatureF,DewpointF,PressureIn,WindDirection,WindDirectionDegrees,WindSpeedMPH,WindSpeedGustMPH,Humidity,HourlyPrecipIn,Conditions,Clouds,dailyrainin,SoftwareType,DateUTC
2013-07-02 00:03:00,64.5,43.0,29.92,NNE,15,0.0,2.0,45,0.00,,,0.00,weatherlink.com 1.10,2013-07-02 07:03:00,
2013-07-02 00:18:00,64.4,42.0,29.92,NNE,15,0.0,1.0,45,0.00,,,0.00,weatherlink.com 1.10,2013-07-02 07:18:00,
2013-07-02 00:33:00,64.4,42.0,29.92,NNE,15,0.0,1.0,44,0.00,,,0.00,weatherlink.com 1.10,2013-07-02 07:33:00,
2013-07-02 00:48:00,64.8,42.0,29.92,NNE,15,0.0,1.0,44,0.00,,,0.00,weatherlink.com 1.10,2013-07-02 07:48:00,
2013-07-02 01:03:00,64.1,43.0,29.92,NNE,15,0.0,2.0,46,0.00,,,0.00,weatherlink.com 1.10,2013-07-02 08:03:00,
2013-07-02 01:18:00,63.4,43.0,29.92,NNE,15,1.0,2.0,47,0.00,,,0.00,weatherlink.com 1.10,2013-07-02 08:18:00,
2013-07-02 01:33:00,62.9,42.0,29.91,NNE,15,0.0,1.0,47,0.00,,,0.00,weatherlink.com 1.10,2013-07-02 08:33:00,
2013-07-02 01:48:00,62.6,42.0,29.91,NNE,15,0.0,3.0,47,0.00,,,0.00,weatherlink.com 1.10,2013-07-02 08:48:00,
2013-07-02 02:03:00,62.3,42.0,29.91,NNE,15,0.0,2.0,48,0.00,,,0.00,weatherlink.com 1.10,2013-07-02 09:03:00,
2013-07-02 02:18:00,61.8,42.0,29.91,NNE,15,0.0,2.0,48,0.00,,,0.00,weatherlink.com 1.10,2013-07-02 09:18:00,
2013-07-02 02:33:00,61.7,42.0,29.91,NNE,15,0.0,1.0,48,0.00,,,0.00,weatherlink.com 1.10,2013-07-02 09:33:00,
2013-07-02 02:48:00,61.1,42.0,29.91,NNE,15,0.0,2.0,49,0.00,,,0.00,weatherlink.com 1.10,2013-07-02 09:48:00,
2013-07-02 03:03:00,60.1,42.0,29.92,NNE,15,0.0,1.0,51,0.00,,,0.00,weatherlink.com 1.10,2013-07-02 10:03:00,
2013-07-02 03:18:00,59.4,42.0,29.93,NNE,15,0.0,1.0,52,0.00,,,0.00,weatherlink.com 1.10,2013-07-02 10:18:00,
2013-07-02 03:33:00,58.7,41.0,29.94,NNE,15,0.0,2.0,53,0.00,,,0.00,weatherlink.com 1.10,2013-07-02 10:33:00,
2013-07-02 03:49:00,57.6,41.0,29.94,NNE,15,0.0,2.0,55,0.00,,,0.00,weatherlink.com 1.10,2013-07-02 10:49:00,
2013-07-02 04:04:00,57.1,42.0,29.95,NNE,15,0.0,1.0,57,0.00,,,0.00,weatherlink.com 1.10,2013-07-02 11:04:00,
2013-07-02 04:19:00,56.7,42.0,29.96,NNE,15,1.0,1.0,58,0.00,,,0.00,weatherlink.com 1.10,2013-07-02 11:19:00,
2013-07-02 04:34:00,56.3,42.0,29.97,NNE,15,0.0,1.0,59,0.00,,,0.00,weatherlink.com 1.10,2013-07-02 11:34:00,
2013-07-02 04:49:00,56.0,42.0,29.98,NNE,15,0.0,2.0,60,0.00,,,0.00,weatherlink.com 1.10,2013-07-02 11:49:00,
2013-07-02 05:04:00,56.1,42.0,29.98,NNE,15,0.0,1.0,59,0.00,,,0.00,weatherlink.com 1.10,2013-07-02 12:04:00,
2013-07-02 05:19:00,55.7,42.0,29.99,NNE,15,0.0,1.0,60,0.00,,,0.00,weatherlink.com 1.10,2013-07-02 12:19:00,
2013-07-02 05:34:00,55.8,42.0,29.99,NNE,15,0.0,2.0,61,0.00,,,0.00,weatherlink.com 1.10,2013-07-02 12:34:00,
2013-07-02 05:49:00,55.7,43.0,30.00,NNE,15,0.0,1.0,62,0.00,,,0.00,weatherlink.com 1.10,2013-07-02 12:49:00,
2013-07-02 06:04:00,55.8,44.0,30.00,NNE,15,0.0,1.0,64,0.00,,,0.00,weatherlink.com 1.10,2013-07-02 13:04:00,
2013-07-02 06:19:00,56.3,45.0,30.01,NNE,15,0.0,0.0,65,0.00,,,0.00,weatherlink.com 1.10,2013-07-02 13:19:00,
2013-07-02 06:34:00,57.5,46.0,30.01,NNE,15,0.0,0.0,65,0.00,,,0.00,weatherlink.com 1.10,2013-07-02 13:34:00,
2013-07-02 06:49:00,59.1,47.0,30.01,NNE,15,0.0,0.0,65,0.00,,,0.00,weatherlink.com 1.10,2013-07-02 13:49:00,
2013-07-02 07:04:00,62.0,50.0,30.02,NNE,15,0.0,2.0,64,0.00,,,0.00,weatherlink.com 1.10,2013-07-02 14:04:00,
2013-07-02 07:19:00,66.6,51.0,30.02,SSE,158,1.0,7.0,57,0.00,,,0.00,weatherlink.com 1.10,2013-07-02 14:19:00,
2013-07-02 07:34:00,69.3,52.0,30.02,SW,224,3.0,9.0,54,0.00,,,0.00,weatherlink.com 1.10,2013-07-02 14:34:00,
2013-07-02 07:49:00,69.9,52.0,30.02,WSW,239,2.0,14.0,54,0.00,,,0.00,weatherlink.com 1.10,2013-07-02 14:49:00,
2013-07-02 08:04:00,70.3,52.0,30.02,West,262,5.0,8.0,53,0.00,,,0.00,weatherlink.com 1.10,2013-07-02 15:04:00,
2013-07-02 08:19:00,70.3,52.0,30.02,SSE,151,1.0,15.0,53,0.00,,,0.00,weatherlink.com 1.10,2013-07-02 15:19:00,
2013-07-02 08:34:00,70.7,53.0,30.02,WSW,251,6.0,6.0,53,0.00,,,0.00,weatherlink.com 1.10,2013-07-02 15:34:00,
2013-07-02 08:49:00,71.2,53.0,30.01,SW,222,0.0,12.0,52,0.00,,,0.00,weatherlink.com 1.10,2013-07-02 15:49:00,
2013-07-02 09:04:00,71.8,53.0,30.00,SSW,196,0.0,8.0,51,0.00,,,0.00,weatherlink.com 1.10,2013-07-02 16:04:00,
2013-07-02 09:19:00,72.5,53.0,30.00,South,184,3.0,7.0,50,0.00,,,0.00,weatherlink.com 1.10,2013-07-02 16:19:00,
2013-07-02 09:34:00,73.4,53.0,30.00,South,186,0.0,6.0,49,0.00,,,0.00,weatherlink.com 1.10,2013-07-02 16:34:00,
2013-07-02 09:49:00,73.9,53.0,30.00,WSW,245,1.0,7.0,49,0.00,,,0.00,weatherlink.com 1.10,2013-07-02 16:49:00,
2013-07-02 10:05:00,74.2,53.0,30.00,SW,228,2.0,7.0,47,0.00,,,0.00,weatherlink.com 1.10,2013-07-02 17:05:00,
2013-07-02 10:20:00,75.0,53.0,29.99,SW,231,6.0,7.0,46,0.00,,,0.00,weatherlink.com 1.10,2013-07-02 17:20:00,
2013-07-02 10:35:00,75.0,52.0,29.99,WSW,246,2.0,10.0,45,0.00,,,0.00,weatherlink.com 1.10,2013-07-02 17:35:00,
2013-07-02 10:50:00,75.8,53.0,29.99,WSW,247,3.0,7.0,45,0.00,,,0.00,weatherlink.com 1.10,2013-07-02 17:50:00,
2013-07-02 11:05:00,76.8,53.0,29.99,WSW,258,4.0,6.0,43,0.00,,,0.00,weatherlink.com 1.10,2013-07-02 18:05:00,
2013-07-02 11:20:00,74.9,52.0,29.98,SW,218,5.0,5.0,45,0.00,,,0.00,weatherlink.com 1.10,2013-07-02 18:20:00,
2013-07-02 11:35:00,75.5,53.0,29.98,SSW,212,3.0,6.0,46,0.00,,,0.00,weatherlink.com 1.10,2013-07-02 18:35:00,
2013-07-02 11:50:00,77.6,53.0,29.98,SSW,210,5.0,11.0,43,0.00,,,0.00,weatherlink.com 1.10,2013-07-02 18:50:00,
2013-07-02 12:05:00,77.3,53.0,29.98,West,276,0.0,11.0,43,0.00,,,0.00,weatherlink.com 1.10,2013-07-02 19:05:00,
2013-07-02 12:20:00,77.0,53.0,29.97,WNW,285,4.0,9.0,44,0.00,,,0.00,weatherlink.com 1.10,2013-07-02 19:20:00,
2013-07-02 12:35:00,77.7,53.0,29.97,WSW,245,2.0,6.0,43,0.00,,,0.00,weatherlink.com 1.10,2013-07-02 19:35:00,
2013-07-02 12:50:00,79.1,53.0,29.96,South,188,1.0,7.0,40,0.00,,,0.00,weatherlink.com 1.10,2013-07-02 19:50:00,
2013-07-02 13:05:00,80.0,53.0,29.95,SSW,208,2.0,8.0,39,0.00,,,0.00,weatherlink.com 1.10,2013-07-02 20:05:00,
2013-07-02 13:20:00,80.6,53.0,29.95,WNW,295,1.0,11.0,38,0.00,,,0.00,weatherlink.com 1.10,2013-07-02 20:20:00,
2013-07-02 13:35:00,79.1,52.0,29.96,SW,224,0.0,6.0,39,0.00,,,0.00,weatherlink.com 1.10,2013-07-02 20:35:00,
2013-07-02 13:50:00,78.5,52.0,29.94,SSW,198,2.0,5.0,40,0.00,,,0.00,weatherlink.com 1.10,2013-07-02 20:50:00,
2013-07-02 14:05:00,77.9,52.0,29.94,SSW,198,0.0,3.0,41,0.00,,,0.00,weatherlink.com 1.10,2013-07-02 21:05:00,
2013-07-02 14:20:00,77.5,52.0,29.93,South,187,0.0,5.0,41,0.00,,,0.00,weatherlink.com 1.10,2013-07-02 21:20:00,
2013-07-02 14:35:00,77.3,52.0,29.93,South,181,0.0,7.0,41,0.00,,,0.00,weatherlink.com 1.10,2013-07-02 21:35:00,
2013-07-02 14:50:00,77.2,52.0,29.92,South,183,1.0,7.0,42,0.00,,,0.00,weatherlink.com 1.10,2013-07-02 21:50:00,
2013-07-02 15:05:00,76.4,54.0,29.91,South,173,0.0,3.0,46,0.00,,,0.00,weatherlink.com 1.10,2013-07-02 22:05:00,
2013-07-02 15:20:00,75.7,53.0,29.89,South,173,0.0,3.0,46,0.00,,,0.00,weatherlink.com 1.10,2013-07-02 22:20:00,
2013-07-02 15:35:00,75.2,53.0,29.89,SE,137,0.0,3.0,46,0.00,,,0.00,weatherlink.com 1.10,2013-07-02 22:35:00,
2013-07-02 15:50:00,74.0,57.0,29.92,SE,137,0.0,2.0,55,0.01,,,0.01,weatherlink.com 1.10,2013-07-02 22:50:00,
2013-07-02 16:05:00,69.9,59.0,29.93,WNW,285,1.0,5.0,69,0.01,,,0.01,weatherlink.com 1.10,2013-07-02 23:05:00,
2013-07-02 16:20:00,66.7,58.0,29.92,NNE,32,2.0,9.0,73,0.03,,,0.03,weatherlink.com 1.10,2013-07-02 23:20:00,
2013-07-02 16:35:00,63.9,57.0,29.92,North,6,1.0,5.0,77,0.03,,,0.03,weatherlink.com 1.10,2013-07-02 23:35:00,
2013-07-02 16:50:00,62.9,57.0,29.91,NNE,18,0.0,1.0,80,0.02,,,0.03,weatherlink.com 1.10,2013-07-02 23:50:00,
2013-07-02 17:05:00,62.8,57.0,29.90,NNE,18,0.0,1.0,82,0.02,,,0.03,weatherlink.com 1.10,2013-07-03 00:05:00,
2013-07-02 17:20:00,63.0,57.0,29.91,NNE,18,0.0,1.0,81,0.00,,,0.03,weatherlink.com 1.10,2013-07-03 00:20:00,
2013-07-02 17:35:00,63.2,58.0,29.92,NNE,18,0.0,1.0,82,0.00,,,0.03,weatherlink.com 1.10,2013-07-03 00:35:00,
2013-07-02 17:50:00,63.3,57.0,29.93,NNE,18,0.0,1.0,80,0.00,,,0.03,weatherlink.com 1.10,2013-07-03 00:50:00,
2013-07-02 18:05:00,63.4,57.0,29.93,NNE,18,0.0,1.0,79,0.00,,,0.03,weatherlink.com 1.10,2013-07-03 01:05:00,
2013-07-02 18:20:00,63.7,56.0,29.93,NNE,18,0.0,1.0,77,0.00,,,0.03,weatherlink.com 1.10,2013-07-03 01:20:00,
2013-07-02 18:35:00,64.0,57.0,29.96,NNE,18,0.0,0.0,77,0.00,,,0.03,weatherlink.com 1.10,2013-07-03 01:35:00,
2013-07-02 18:50:00,64.5,57.0,30.02,NNE,18,0.0,4.0,76,0.00,,,0.03,weatherlink.com 1.10,2013-07-03 01:50:00,
2013-07-02 19:05:00,64.1,55.0,29.99,ESE,121,2.0,5.0,72,0.00,,,0.03,weatherlink.com 1.10,2013-07-03 02:05:00,
2013-07-02 19:20:00,66.0,51.0,29.97,South,178,1.0,11.0,59,0.01,,,0.04,weatherlink.com 1.10,2013-07-03 02:20:00,
2013-07-02 19:35:00,67.4,50.0,29.96,SE,134,0.0,10.0,53,0.01,,,0.04,weatherlink.com 1.10,2013-07-03 02:35:00,
2013-07-02 19:50:00,67.2,48.0,29.96,SSW,194,0.0,12.0,51,0.01,,,0.04,weatherlink.com 1.10,2013-07-03 02:50:00,
2013-07-02 20:05:00,66.5,49.0,29.97,SSW,194,0.0,2.0,53,0.01,,,0.04,weatherlink.com 1.10,2013-07-03 03:05:00,
2013-07-02 20:35:00,64.3,49.0,29.99,SSW,194,0.0,0.0,58,0.00,,,0.04,weatherlink.com 1.10,2013-07-03 03:35:00,
2013-07-02 20:50:00,63.2,49.0,29.99,SSW,194,0.0,0.0,61,0.00,,,0.04,weatherlink.com 1.10,2013-07-03 03:50:00,
2013-07-02 21:05:00,62.1,51.0,29.99,SSW,194,0.0,0.0,66,0.00,,,0.04,weatherlink.com 1.10,2013-07-03 04:05:00,
2013-07-02 21:20:00,61.4,51.0,30.00,SSW,194,0.0,0.0,68,0.00,,,0.04,weatherlink.com 1.10,2013-07-03 04:20:00,
2013-07-02 21:35:00,60.8,51.0,30.01,SSW,194,0.0,0.0,71,0.00,,,0.04,weatherlink.com 1.10,2013-07-03 04:35:00,
2013-07-02 21:50:00,60.5,51.0,30.01,SSW,194,0.0,1.0,71,0.00,,,0.04,weatherlink.com 1.10,2013-07-03 04:50:00,
2013-07-02 22:05:00,61.0,52.0,30.01,SSW,194,0.0,1.0,71,0.00,,,0.04,weatherlink.com 1.10,2013-07-03 05:05:00,
2013-07-02 22:20:00,61.0,52.0,30.01,SSW,194,0.0,1.0,71,0.00,,,0.04,weatherlink.com 1.10,2013-07-03 05:20:00,
2013-07-02 22:35:00,60.7,51.0,30.01,SSW,194,1.0,2.0,71,0.00,,,0.04,weatherlink.com 1.10,2013-07-03 05:35:00,
2013-07-02 22:50:00,60.5,51.0,30.02,SSW,194,0.0,2.0,71,0.00,,,0.04,weatherlink.com 1.10,2013-07-03 05:50:00,
2013-07-02 23:05:00,60.9,50.0,30.00,SSW,194,2.0,3.0,68,0.00,,,0.04,weatherlink.com 1.10,2013-07-03 06:05:00,
2013-07-02 23:50:00,61.3,51.0,30.01,SSW,194,0.0,3.0,70,0.00,,,0.04,weatherlink.com 1.10,2013-07-03 06:50:00,